Time;durP1;ratioP1;P1;durP2;ratioP2;P2;SDS_P1;SDS_P2;PMS_P1;PMS_P2;Temp;Humidity;BMP_temperature;BMP_pressure;BME280_temperature;BME280_humidity;BME280_pressure;Samples;Min_cycle;Max_cycle;Signal;HPM_P1;HPM_P2
2023/07/19 00:00:43;;;;;;;12.55;5.65;;;;;;;21.17;100.00;99818.97;5089020;28;20737;-59
2023/07/19 00:03:09;;;;;;;12.75;6.45;;;;;;;21.18;100.00;99816.16;5087553;28;20518;-59
2023/07/19 00:05:35;;;;;;;12.35;6.97;;;;;;;21.21;100.00;99809.63;5088142;28;20100;-58
2023/07/19 00:08:04;;;;;;;12.20;6.40;;;;;;;21.25;100.00;99822.78;5088584;28;20065;-58
2023/07/19 00:10:30;;;;;;;11.07;6.18;;;;;;;21.27;100.00;99833.50;5088048;28;20029;-58
2023/07/19 00:12:55;;;;;;;12.77;7.05;;;;;;;21.29;100.00;99818.84;5085102;28;20027;-59
2023/07/19 00:15:21;;;;;;;12.18;6.20;;;;;;;21.31;100.00;99818.72;5067797;28;20043;-58
2023/07/19 00:17:46;;;;;;;10.85;5.75;;;;;;;21.29;100.00;99820.69;5067520;28;20012;-59
2023/07/19 00:20:12;;;;;;;12.30;6.00;;;;;;;21.31;100.00;99826.84;5068044;28;20048;-59
2023/07/19 00:22:38;;;;;;;10.68;5.97;;;;;;;21.31;100.00;99826.84;5086971;28;20024;-58
2023/07/19 00:25:04;;;;;;;12.13;6.68;;;;;;;21.31;100.00;99821.44;5086408;28;20380;-58
2023/07/19 00:27:29;;;;;;;10.88;5.93;;;;;;;21.31;100.00;99827.72;5084661;28;20024;-58
2023/07/19 00:29:55;;;;;;;11.90;5.63;;;;;;;21.28;100.00;99827.09;5085689;28;20084;-58
2023/07/19 00:32:21;;;;;;;10.75;5.72;;;;;;;21.26;100.00;99826.34;5075147;28;20681;-58
2023/07/19 00:34:47;;;;;;;8.85;5.22;;;;;;;21.21;100.00;99826.72;5068447;28;20084;-58
2023/07/19 00:37:12;;;;;;;12.93;5.82;;;;;;;21.15;100.00;99827.22;5085539;28;20036;-58
2023/07/19 00:39:38;;;;;;;11.02;5.30;;;;;;;21.13;100.00;99831.00;5085900;28;20085;-59
2023/07/19 00:42:04;;;;;;;9.38;4.85;;;;;;;21.09;100.00;99834.94;5086484;28;20035;-59
2023/07/19 00:44:29;;;;;;;11.95;5.65;;;;;;;21.02;100.00;99831.00;5085773;28;20115;-58
2023/07/19 00:46:54;;;;;;;8.68;4.93;;;;;;;20.99;100.00;99836.66;5086863;28;20130;-58
2023/07/19 00:49:20;;;;;;;9.95;4.97;;;;;;;20.99;100.00;99833.94;5086582;28;20035;-59
2023/07/19 00:51:46;;;;;;;11.90;5.45;;;;;;;20.98;100.00;99834.91;5086408;28;20024;-58
2023/07/19 00:54:12;;;;;;;9.43;4.72;;;;;;;20.97;100.00;99836.78;5087760;28;20040;-58
2023/07/19 00:56:40;;;;;;;11.75;6.15;;;;;;;20.95;100.00;99833.28;5087486;28;20051;-59
2023/07/19 00:59:05;;;;;;;10.00;5.72;;;;;;;20.94;100.00;99837.81;5087247;28;20020;-58
2023/07/19 01:01:31;;;;;;;12.63;6.32;;;;;;;20.94;100.00;99845.06;5086167;28;20032;-59
2023/07/19 01:03:56;;;;;;;14.20;6.28;;;;;;;20.94;100.00;99845.94;5069705;28;20097;-59
2023/07/19 01:06:22;;;;;;;10.50;5.22;;;;;;;20.90;100.00;99841.72;5067407;28;20031;-59
2023/07/19 01:08:48;;;;;;;9.63;5.32;;;;;;;20.88;100.00;99843.72;5067886;28;20028;-59
2023/07/19 01:11:14;;;;;;;12.30;5.60;;;;;;;20.86;100.00;99848.38;5077626;28;20039;-59
2023/07/19 01:13:55;;;;;;;8.68;5.55;;;;;;;20.85;100.00;99843.97;5087481;28;20032;-58
2023/07/19 01:16:21;;;;;;;11.40;6.15;;;;;;;20.83;100.00;99840.50;5086769;28;20022;-58
2023/07/19 01:18:48;;;;;;;10.77;5.45;;;;;;;20.81;100.00;99845.16;5081717;28;20583;-59
2023/07/19 01:21:13;;;;;;;14.10;5.95;;;;;;;20.85;100.00;99845.78;5085980;28;20062;-59
2023/07/19 01:23:40;;;;;;;11.57;5.40;;;;;;;20.89;100.00;99841.84;5086707;28;20027;-58
2023/07/19 01:26:05;;;;;;;11.35;5.97;;;;;;;20.88;100.00;99837.44;5085336;28;20057;-59
2023/07/19 01:28:31;;;;;;;12.70;6.38;;;;;;;20.89;100.00;99836.44;5086553;28;20031;-59
2023/07/19 01:30:56;;;;;;;11.88;6.47;;;;;;;20.91;100.00;99824.53;5086376;28;20267;-59
2023/07/19 01:33:22;;;;;;;8.35;5.22;;;;;;;20.91;100.00;99824.53;5085693;28;20040;-58
2023/07/19 01:35:47;;;;;;;9.48;5.75;;;;;;;20.87;100.00;99823.03;5086327;28;20035;-59
2023/07/19 01:38:13;;;;;;;11.70;6.20;;;;;;;20.86;100.00;99825.88;5085693;28;20039;-58
2023/07/19 01:40:38;;;;;;;9.40;5.78;;;;;;;20.84;100.00;99831.41;5086876;28;20063;-59
2023/07/19 01:43:03;;;;;;;11.85;6.85;;;;;;;20.81;100.00;99828.94;5086863;28;20139;-59
2023/07/19 01:45:29;;;;;;;8.70;5.03;;;;;;;20.76;100.00;99825.72;5086703;28;20046;-58
2023/07/19 01:47:54;;;;;;;8.88;5.32;;;;;;;20.73;100.00;99825.97;5087701;28;20028;-58
2023/07/19 01:50:20;;;;;;;9.32;5.10;;;;;;;20.65;100.00;99832.94;5087703;28;20024;-58
2023/07/19 01:52:45;;;;;;;10.32;6.25;;;;;;;20.66;100.00;99834.66;5091439;28;20034;-58
2023/07/19 01:55:11;;;;;;;13.50;5.70;;;;;;;20.62;100.00;99834.06;5090645;28;20106;-59
2023/07/19 01:57:36;;;;;;;11.25;6.03;;;;;;;20.57;100.00;99833.53;5077551;28;20074;-58
2023/07/19 02:00:03;;;;;;;8.98;5.88;;;;;;;20.56;100.00;99825.56;5071038;28;20029;-58
2023/07/19 02:02:29;;;;;;;10.70;6.43;;;;;;;20.55;100.00;99816.56;5089625;28;20028;-59
2023/07/19 02:04:54;;;;;;;12.27;6.80;;;;;;;20.49;100.00;99816.19;5075014;28;20131;-58
2023/07/19 02:07:20;;;;;;;10.68;6.53;;;;;;;20.47;100.00;99819.00;5054436;28;20047;-59
2023/07/19 02:09:45;;;;;;;11.85;6.28;;;;;;;20.45;100.00;99815.53;5053228;28;20031;-58
2023/07/19 02:12:11;;;;;;;10.90;5.65;;;;;;;20.40;100.00;99812.34;5050744;28;20754;-58
2023/07/19 02:14:37;;;;;;;16.17;6.20;;;;;;;20.39;100.00;99809.75;5049446;28;20052;-58
2023/07/19 02:17:03;;;;;;;11.07;6.53;;;;;;;20.40;100.00;99817.72;5049542;28;20499;-59
2023/07/19 02:19:28;;;;;;;11.32;6.38;;;;;;;20.36;100.00;99815.38;5055516;28;20078;-59
2023/07/19 02:21:54;;;;;;;12.60;6.85;;;;;;;20.32;100.00;99812.06;5048844;28;20029;-58
2023/07/19 02:24:19;;;;;;;8.98;5.93;;;;;;;20.28;100.00;99810.53;5049095;28;20103;-59
2023/07/19 02:26:45;;;;;;;11.63;6.20;;;;;;;20.24;100.00;99811.78;5049504;28;20468;-59
2023/07/19 02:29:10;;;;;;;9.70;5.72;;;;;;;20.28;100.00;99807.84;5061328;28;20026;-59
2023/07/19 02:31:37;;;;;;;11.65;6.35;;;;;;;20.31;100.00;99814.88;5070891;28;20126;-58
2023/07/19 02:34:05;;;;;;;15.75;7.63;;;;;;;20.30;100.00;99811.28;5066478;28;20028;-58
2023/07/19 02:36:30;;;;;;;12.68;6.47;;;;;;;20.32;100.00;99817.47;5068933;28;20020;-59
2023/07/19 02:38:56;;;;;;;11.80;6.80;;;;;;;20.34;100.00;99820.91;5067563;28;20040;-59
2023/07/19 02:41:22;;;;;;;14.05;6.35;;;;;;;20.34;100.00;99826.31;5069302;28;20025;-59
2023/07/19 02:43:47;;;;;;;12.18;6.25;;;;;;;20.38;100.00;99827.78;5068663;28;20089;-59
2023/07/19 02:46:12;;;;;;;11.00;6.35;;;;;;;20.41;100.00;99832.13;5068983;28;20133;-59
2023/07/19 02:48:38;;;;;;;13.48;6.10;;;;;;;20.40;100.00;99828.53;5067261;28;20466;-58
2023/07/19 02:51:03;;;;;;;13.63;6.03;;;;;;;20.41;100.00;99830.25;5069331;28;20034;-58
2023/07/19 02:53:29;;;;;;;9.63;5.38;;;;;;;20.39;100.00;99837.63;5069301;28;20396;-58
2023/07/19 02:55:54;;;;;;;15.82;6.20;;;;;;;20.33;100.00;99843.47;5054832;28;20128;-58
2023/07/19 02:58:19;;;;;;;11.02;6.25;;;;;;;20.30;100.00;99842.84;5067435;28;20136;-58
2023/07/19 03:00:45;;;;;;;10.80;5.93;;;;;;;20.24;100.00;99841.50;5066158;28;20024;-59
2023/07/19 03:03:11;;;;;;;8.98;6.15;;;;;;;20.22;100.00;99843.44;5068281;28;20028;-58
2023/07/19 03:05:40;;;;;;;13.88;6.15;;;;;;;20.20;100.00;99839.97;5088326;28;20481;-58
2023/07/19 03:08:06;;;;;;;12.27;6.07;;;;;;;20.19;100.00;99840.97;5088457;28;20119;-58
2023/07/19 03:10:31;;;;;;;11.18;6.03;;;;;;;20.18;100.00;99847.31;5088734;28;20166;-58
2023/07/19 03:12:57;;;;;;;11.27;6.93;;;;;;;20.16;100.00;99846.59;5088616;28;20048;-58
2023/07/19 03:15:22;;;;;;;15.98;6.60;;;;;;;20.17;100.00;99851.00;5083956;28;20023;-59
2023/07/19 03:17:48;;;;;;;13.98;6.53;;;;;;;20.18;100.00;99850.03;5087785;28;20050;-59
2023/07/19 03:20:13;;;;;;;12.13;6.43;;;;;;;20.17;100.00;99844.75;5088514;28;20111;-58
2023/07/19 03:22:38;;;;;;;9.43;5.55;;;;;;;20.16;100.00;99852.00;5087653;28;20031;-59
2023/07/19 03:25:05;;;;;;;11.15;6.50;;;;;;;20.17;100.00;99860.94;5088312;28;20114;-59
2023/07/19 03:27:31;;;;;;;12.55;6.25;;;;;;;20.17;100.00;99864.53;5088326;28;20028;-58
2023/07/19 03:29:56;;;;;;;10.48;6.25;;;;;;;20.16;100.00;99878.13;5087773;28;20085;-59
2023/07/19 03:32:21;;;;;;;13.57;6.43;;;;;;;20.15;100.00;99871.00;5086394;28;20073;-59
2023/07/19 03:34:47;;;;;;;9.93;5.53;;;;;;;20.13;100.00;99872.94;5086697;28;20494;-59
2023/07/19 03:37:12;;;;;;;10.85;6.03;;;;;;;20.09;100.00;99872.28;5088003;28;20023;-58
2023/07/19 03:39:38;;;;;;;8.57;5.53;;;;;;;20.06;100.00;99872.53;5088578;28;20028;-58
2023/07/19 03:42:03;;;;;;;9.00;4.97;;;;;;;20.02;100.00;99879.13;5088180;28;20096;-58
2023/07/19 03:44:29;;;;;;;11.90;5.97;;;;;;;19.99;100.00;99879.34;5087106;28;20103;-58
2023/07/19 03:46:54;;;;;;;10.82;6.18;;;;;;;19.96;100.00;99887.69;5089161;28;20032;-58
2023/07/19 03:49:20;;;;;;;9.73;5.72;;;;;;;19.97;100.00;99883.13;5089296;28;20104;-59
2023/07/19 03:51:45;;;;;;;10.20;5.38;;;;;;;19.97;100.00;99883.13;5088034;28;20034;-59
2023/07/19 03:54:10;;;;;;;9.63;5.88;;;;;;;19.95;100.00;99883.22;5087921;28;20040;-58
2023/07/19 03:56:36;;;;;;;8.35;5.20;;;;;;;19.92;100.00;99878.06;5086601;28;20369;-58
2023/07/19 03:59:01;;;;;;;12.60;5.47;;;;;;;19.91;100.00;99881.75;5085298;28;20768;-58
2023/07/19 04:01:27;;;;;;;9.40;5.10;;;;;;;19.90;100.00;99879.16;5087299;28;20032;-59
2023/07/19 04:03:52;;;;;;;11.30;5.20;;;;;;;19.89;100.00;99872.88;5086934;28;20427;-59
2023/07/19 04:06:18;;;;;;;11.02;5.20;;;;;;;19.92;100.00;99879.91;5082330;28;20104;-58
2023/07/19 04:08:43;;;;;;;8.35;5.38;;;;;;;19.93;100.00;99887.91;5085307;28;20015;-58
2023/07/19 04:11:08;;;;;;;12.45;5.05;;;;;;;19.99;100.00;99890.16;5087405;28;20035;-59
2023/07/19 04:13:34;;;;;;;10.13;5.20;;;;;;;20.01;100.00;99882.81;5085615;28;20020;-59
2023/07/19 04:15:59;;;;;;;9.30;5.47;;;;;;;20.06;100.00;99890.56;5086181;28;20384;-58
2023/07/19 04:18:25;;;;;;;9.45;5.63;;;;;;;20.09;100.00;99893.03;5087027;28;20110;-59
2023/07/19 04:20:56;;;;;;;12.88;7.47;;;;;;;20.10;100.00;99890.22;5087518;28;20024;-58
2023/07/19 04:23:22;;;;;;;10.57;6.82;;;;;;;20.11;100.00;99897.34;5086745;28;20028;-59
2023/07/19 04:25:49;;;;;;;10.93;6.18;;;;;;;20.09;100.00;99898.44;5087306;28;20036;-58
2023/07/19 04:28:14;;;;;;;11.95;6.65;;;;;;;20.12;100.00;99892.78;5086962;28;20032;-59
2023/07/19 04:30:40;;;;;;;12.15;6.88;;;;;;;20.12;100.00;99898.19;5086371;28;20034;-58
2023/07/19 04:33:06;;;;;;;11.40;6.30;;;;;;;20.11;100.00;99894.66;5087330;28;20028;-58
2023/07/19 04:35:32;;;;;;;9.23;5.35;;;;;;;20.14;100.00;99898.97;5086120;28;20035;-58
2023/07/19 04:37:57;;;;;;;11.93;6.40;;;;;;;20.11;100.00;99897.34;5068707;28;20028;-58
2023/07/19 04:40:23;;;;;;;11.82;5.63;;;;;;;20.14;100.00;99894.44;5085870;28;20088;-59
2023/07/19 04:42:49;;;;;;;13.43;5.57;;;;;;;20.17;100.00;99894.22;5088010;28;20028;-58
2023/07/19 04:45:14;;;;;;;8.68;5.15;;;;;;;20.20;100.00;99893.13;5087514;28;20036;-58
2023/07/19 04:47:40;;;;;;;11.30;5.45;;;;;;;20.24;100.00;99903.63;5086958;28;20391;-58
2023/07/19 04:50:09;;;;;;;9.73;5.00;;;;;;;20.27;100.00;99892.56;5085622;28;20028;-58
2023/07/19 04:52:35;;;;;;;8.25;4.97;;;;;;;20.25;100.00;99883.72;5086730;28;20351;-59
2023/07/19 04:55:02;;;;;;;12.23;5.22;;;;;;;20.36;100.00;99897.28;5085315;28;20050;-58
2023/07/19 04:57:28;;;;;;;8.65;4.75;;;;;;;20.44;100.00;99889.50;5086543;28;20022;-58
2023/07/19 04:59:53;;;;;;;11.15;5.18;;;;;;;20.47;100.00;99883.84;5085954;28;20020;-59
2023/07/19 05:02:18;;;;;;;10.13;5.45;;;;;;;20.53;100.00;99888.78;5085700;28;20032;-58
2023/07/19 05:04:44;;;;;;;10.63;5.30;;;;;;;20.60;100.00;99887.34;5086349;28;20052;-59
2023/07/19 05:07:09;;;;;;;11.68;5.90;;;;;;;20.65;100.00;99882.47;5077278;28;20354;-59
2023/07/19 05:09:34;;;;;;;12.25;7.20;;;;;;;20.73;100.00;99880.03;5066573;28;20033;-58
2023/07/19 05:12:00;;;;;;;15.25;5.70;;;;;;;20.81;100.00;99880.31;5055063;28;20024;-58
2023/07/19 05:14:26;;;;;;;13.23;5.78;;;;;;;20.88;100.00;99888.81;5065155;28;20020;-59
2023/07/19 05:16:52;;;;;;;10.52;5.63;;;;;;;21.01;100.00;99883.34;5064878;28;20529;-59
2023/07/19 05:19:17;;;;;;;10.15;5.40;;;;;;;21.36;100.00;99889.56;5055693;28;20043;-59
2023/07/19 05:21:43;;;;;;;11.23;5.28;;;;;;;21.70;100.00;99883.19;5056171;28;20032;-59
2023/07/19 05:24:08;;;;;;;10.18;5.28;;;;;;;21.90;100.00;99894.19;5066170;28;20441;-59
2023/07/19 05:26:33;;;;;;;14.00;6.50;;;;;;;22.04;100.00;99888.50;5066237;28;21194;-59
2023/07/19 05:28:59;;;;;;;9.38;5.55;;;;;;;22.01;100.00;99888.75;5048561;28;20033;-59
2023/07/19 05:31:24;;;;;;;10.18;6.20;;;;;;;21.92;100.00;99891.38;5067217;28;20036;-59
2023/07/19 05:33:50;;;;;;;12.60;5.55;;;;;;;21.84;100.00;99885.72;5067221;28;20131;-58
2023/07/19 05:36:15;;;;;;;9.10;5.32;;;;;;;21.79;100.00;99882.50;5064441;28;20032;-59
2023/07/19 05:38:41;;;;;;;11.30;5.75;;;;;;;21.82;100.00;99890.38;5069401;28;20025;-59
2023/07/19 05:41:06;;;;;;;9.48;5.28;;;;;;;21.84;100.00;99891.13;5064107;28;20032;-58
2023/07/19 05:43:33;;;;;;;8.02;5.70;;;;;;;21.92;100.00;99899.50;5067810;28;20032;-59
2023/07/19 05:46:06;;;;;;;11.30;5.15;;;;;;;21.95;100.00;99904.66;5068118;28;20028;-58
2023/07/19 05:48:32;;;;;;;9.50;5.80;;;;;;;21.99;100.00;99900.72;5068800;28;20524;-59
2023/07/19 05:50:58;;;;;;;8.75;5.28;;;;;;;22.07;100.00;99898.25;5066992;28;20055;-59
2023/07/19 05:53:23;;;;;;;8.68;5.20;;;;;;;22.12;100.00;99906.88;5067884;28;20440;-59
2023/07/19 05:55:49;;;;;;;9.65;5.30;;;;;;;22.22;100.00;99913.25;5067816;28;20032;-59
2023/07/19 05:58:15;;;;;;;8.25;4.78;;;;;;;22.30;100.00;99904.50;5066818;28;20037;-59
2023/07/19 06:00:40;;;;;;;8.48;4.38;;;;;;;22.40;100.00;99909.03;5066773;28;20039;-59
2023/07/19 06:03:06;;;;;;;11.65;5.05;;;;;;;22.49;100.00;99910.13;5067411;28;20452;-59
2023/07/19 06:05:32;;;;;;;9.70;4.43;;;;;;;22.56;100.00;99912.22;5083783;28;20093;-59
2023/07/19 06:07:58;;;;;;;11.57;5.30;;;;;;;22.62;99.98;99922.53;5082220;28;20499;-59
2023/07/19 06:10:23;;;;;;;9.98;5.10;;;;;;;22.67;99.20;99931.16;5076525;28;20032;-59
2023/07/19 06:12:49;;;;;;;9.95;4.75;;;;;;;22.72;98.40;99923.50;5082081;28;20479;-58
2023/07/19 06:15:15;;;;;;;6.95;4.63;;;;;;;22.82;97.83;99924.47;5069426;28;20028;-59
2023/07/19 06:17:41;;;;;;;7.35;4.57;;;;;;;22.92;97.65;99925.41;5072411;28;20024;-59
2023/07/19 06:20:10;;;;;;;7.03;4.18;;;;;;;23.01;96.71;99930.06;5088474;28;20604;-59
2023/07/19 06:22:36;;;;;;;8.60;4.75;;;;;;;23.09;95.93;99935.69;5088888;28;20038;-60
2023/07/19 06:25:01;;;;;;;8.10;4.43;;;;;;;23.24;95.16;99936.22;5088385;28;20032;-59
2023/07/19 06:27:27;;;;;;;10.30;4.80;;;;;;;23.41;94.52;99925.66;5089017;28;20038;-59
2023/07/19 06:29:52;;;;;;;7.72;3.78;;;;;;;23.54;94.13;99927.31;5087920;28;20144;-59
2023/07/19 06:32:17;;;;;;;7.35;3.88;;;;;;;23.70;92.39;99923.13;5075143;28;20027;-59
2023/07/19 06:34:43;;;;;;;8.73;4.45;;;;;;;23.85;90.89;99931.78;5079784;28;20025;-58
2023/07/19 06:37:08;;;;;;;7.55;4.32;;;;;;;24.09;90.77;99929.63;5084911;28;20039;-59
2023/07/19 06:39:34;;;;;;;8.55;4.43;;;;;;;24.27;90.47;99936.13;5074379;28;20057;-59
2023/07/19 06:42:00;;;;;;;6.50;3.85;;;;;;;24.35;88.16;99925.41;5089369;28;20043;-59
2023/07/19 06:44:25;;;;;;;9.05;3.75;;;;;;;24.37;85.13;99924.28;5090017;28;20031;-59
2023/07/19 06:46:51;;;;;;;6.30;4.28;;;;;;;24.50;85.39;99934.91;5085400;28;20036;-59
2023/07/19 06:49:16;;;;;;;7.28;3.40;;;;;;;24.52;84.78;99927.47;5089495;28;20073;-59
2023/07/19 06:51:42;;;;;;;7.10;3.60;;;;;;;24.53;83.23;99940.06;5088657;28;20043;-59
2023/07/19 06:54:07;;;;;;;8.05;3.72;;;;;;;24.61;82.21;99926.66;5087050;28;20059;-59
2023/07/19 06:56:33;;;;;;;6.20;3.42;;;;;;;24.79;82.77;99924.97;5077313;28;20506;-59
2023/07/19 06:58:58;;;;;;;8.95;3.97;;;;;;;24.99;80.72;99920.41;5087788;28;20084;-60
2023/07/19 07:01:24;;;;;;;7.60;3.70;;;;;;;25.18;81.63;99914.94;5082093;28;20032;-60
2023/07/19 07:03:50;;;;;;;9.07;3.47;;;;;;;25.31;79.55;99924.53;5086450;28;20059;-59
2023/07/19 07:06:16;;;;;;;6.75;3.30;;;;;;;25.55;78.58;99919.50;5086506;28;20081;-59
2023/07/19 07:08:42;;;;;;;9.00;3.58;;;;;;;25.58;78.15;99894.72;5081340;28;20508;-60
2023/07/19 07:11:07;;;;;;;6.30;3.45;;;;;;;25.79;77.49;99914.44;5082376;28;20495;-60
2023/07/19 07:13:33;;;;;;;7.55;3.65;;;;;;;25.94;75.45;99915.66;5084582;28;20146;-59
2023/07/19 07:15:58;;;;;;;8.15;3.60;;;;;;;26.15;74.76;99917.31;5086693;28;20077;-60
2023/07/19 07:18:23;;;;;;;5.40;3.15;;;;;;;26.25;73.81;99915.41;5088597;28;20024;-60
2023/07/19 07:20:52;;;;;;;7.07;3.35;;;;;;;26.30;71.22;99908.50;5088723;28;20031;-59
2023/07/19 07:23:17;;;;;;;6.85;3.05;;;;;;;26.42;70.75;99910.00;5088639;28;20024;-60
2023/07/19 07:25:43;;;;;;;5.20;3.00;;;;;;;26.55;69.71;99909.63;5086993;28;20152;-59
2023/07/19 07:28:08;;;;;;;6.68;3.40;;;;;;;26.67;69.46;99908.44;5088477;28;20165;-60
2023/07/19 07:30:36;;;;;;;6.00;3.30;;;;;;;26.87;68.66;99904.56;5087984;28;20028;-60
2023/07/19 07:33:01;;;;;;;5.90;2.80;;;;;;;27.14;68.40;99912.66;5085756;28;20379;-60
2023/07/19 07:35:28;;;;;;;6.43;3.03;;;;;;;27.49;67.25;99911.78;5087071;28;20032;-60
2023/07/19 07:37:53;;;;;;;6.70;2.65;;;;;;;27.64;66.41;99911.03;5088464;28;20028;-60
2023/07/19 07:40:19;;;;;;;6.82;2.88;;;;;;;27.92;65.65;99903.56;5088106;28;20578;-60
2023/07/19 07:42:44;;;;;;;5.63;2.78;;;;;;;28.14;63.71;99903.84;5087957;28;20111;-60
2023/07/19 07:45:10;;;;;;;7.45;3.08;;;;;;;28.26;62.87;99902.53;5088110;28;20583;-60
2023/07/19 07:47:36;;;;;;;5.10;2.70;;;;;;;28.38;60.35;99906.66;5075809;28;20028;-60
2023/07/19 07:50:03;;;;;;;5.07;2.58;;;;;;;28.59;58.52;99897.19;5087530;28;20031;-60
2023/07/19 07:52:29;;;;;;;6.85;2.42;;;;;;;28.82;58.77;99903.72;5087673;28;20080;-60
2023/07/19 07:54:54;;;;;;;5.03;2.50;;;;;;;29.05;59.08;99905.66;5086474;28;20036;-60
2023/07/19 07:57:19;;;;;;;5.22;2.60;;;;;;;29.34;58.22;99894.22;5085785;28;20059;-60
2023/07/19 07:59:45;;;;;;;7.82;2.78;;;;;;;29.45;54.91;99902.09;5067299;28;20497;-61
2023/07/19 08:02:11;;;;;;;7.20;2.30;;;;;;;29.57;55.12;99897.97;5082865;28;20039;-60
2023/07/19 08:04:36;;;;;;;7.90;3.03;;;;;;;29.86;56.54;99890.06;5087558;28;20056;-60
2023/07/19 08:07:02;;;;;;;4.82;2.33;;;;;;;30.31;54.90;99897.66;5086716;28;20050;-60
2023/07/19 08:09:27;;;;;;;5.63;2.88;;;;;;;30.77;53.29;99891.22;5082393;28;20517;-60
2023/07/19 08:11:53;;;;;;;5.93;2.40;;;;;;;31.17;50.62;99887.38;5084486;28;20640;-61
2023/07/19 08:14:19;;;;;;;6.03;2.75;;;;;;;31.40;51.94;99883.56;5086891;28;20036;-60
2023/07/19 08:16:46;;;;;;;5.40;2.30;;;;;;;31.68;49.02;99889.31;5086647;28;20064;-61
2023/07/19 08:19:12;;;;;;;5.88;2.50;;;;;;;31.70;47.39;99885.34;5087469;28;20372;-60
2023/07/19 08:21:37;;;;;;;9.45;2.53;;;;;;;31.91;47.36;99879.97;5087523;28;20224;-61
2023/07/19 08:24:03;;;;;;;8.45;2.05;;;;;;;31.94;47.12;99876.00;5087679;28;20031;-60
2023/07/19 08:26:28;;;;;;;5.68;2.63;;;;;;;32.01;48.51;99869.53;5085267;28;20032;-61
2023/07/19 08:28:54;;;;;;;5.88;2.63;;;;;;;32.37;46.56;99861.34;5087105;28;20040;-61
2023/07/19 08:31:19;;;;;;;6.40;2.40;;;;;;;32.47;45.17;99870.16;5086511;28;20020;-61
2023/07/19 08:33:45;;;;;;;6.05;1.80;;;;;;;32.91;44.01;99870.94;5087452;28;20032;-61
2023/07/19 08:36:10;;;;;;;3.90;1.80;;;;;;;33.06;41.61;99863.47;5086292;28;20035;-61
2023/07/19 08:38:36;;;;;;;5.72;1.83;;;;;;;32.96;41.71;99862.94;5071537;28;20138;-61
2023/07/19 08:41:03;;;;;;;4.95;1.92;;;;;;;32.95;40.78;99865.91;5066148;28;20027;-61
2023/07/19 08:43:35;;;;;;;5.65;2.50;;;;;;;33.00;41.81;99858.72;5077573;28;20058;-61
2023/07/19 08:46:01;;;;;;;4.53;1.90;;;;;;;32.97;39.59;99856.38;5070462;28;20032;-61
2023/07/19 08:48:26;;;;;;;5.70;1.83;;;;;;;33.24;41.89;99852.81;5085837;28;20093;-61
2023/07/19 08:50:56;;;;;;;5.38;2.15;;;;;;;33.62;40.48;99847.00;5085471;28;20407;-61
2023/07/19 08:53:24;;;;;;;3.92;1.70;;;;;;;33.81;39.91;99851.78;5085527;28;20069;-61
2023/07/19 08:55:50;;;;;;;4.68;1.67;;;;;;;33.60;38.22;99849.94;5078389;28;20035;-61
2023/07/19 08:58:18;;;;;;;3.67;1.52;;;;;;;33.68;38.65;99840.66;5064827;28;20024;-61
2023/07/19 09:00:50;;;;;;;4.00;2.10;;;;;;;33.47;38.63;99838.81;5067551;28;20131;-60
2023/07/19 09:03:17;;;;;;;3.47;1.85;;;;;;;33.58;38.35;99832.75;5083823;28;20054;-61
2023/07/19 09:05:44;;;;;;;3.40;1.77;;;;;;;33.08;38.90;99833.78;5071613;28;20055;-61
2023/07/19 09:08:10;;;;;;;26.85;5.00;;;;;;;33.27;40.45;99830.34;5069700;28;20082;-61
2023/07/19 09:10:36;;;;;;;21.35;4.88;;;;;;;33.73;40.46;99824.34;5080665;28;20027;-61
2023/07/19 09:13:05;;;;;;;5.15;1.45;;;;;;;34.07;37.54;99818.88;5079420;28;20461;-61
2023/07/19 09:15:37;;;;;;;3.70;1.40;;;;;;;34.17;36.68;99825.69;5072519;28;20028;-61
2023/07/19 09:18:05;;;;;;;3.88;1.90;;;;;;;34.24;37.07;99812.78;5074349;28;20732;-61
2023/07/19 09:20:33;;;;;;;3.25;1.58;;;;;;;34.09;37.36;99816.72;5083069;28;20024;-61
2023/07/19 09:22:58;;;;;;;4.35;1.55;;;;;;;34.43;35.91;99812.00;5090421;28;20119;-62
2023/07/19 09:25:24;;;;;;;4.20;1.27;;;;;;;34.41;36.75;99810.53;5090411;28;20127;-61
2023/07/19 09:27:51;;;;;;;5.53;1.65;;;;;;;34.05;35.81;99793.34;5091258;28;20032;-61
2023/07/19 09:30:17;;;;;;;2.70;1.40;;;;;;;34.33;38.11;99802.41;5090569;28;20028;-61
2023/07/19 09:32:42;;;;;;;4.55;1.70;;;;;;;34.53;36.30;99798.66;5091033;28;20620;-61
2023/07/19 09:35:09;;;;;;;2.75;1.40;;;;;;;34.65;35.76;99796.13;5076551;28;20028;-61
2023/07/19 09:37:34;;;;;;;5.03;1.67;;;;;;;34.88;35.03;99804.06;5084714;28;20032;-61
2023/07/19 09:40:03;;;;;;;3.58;1.33;;;;;;;34.71;34.36;99795.31;5069819;28;20028;-61
2023/07/19 09:42:32;;;;;;;5.13;1.45;;;;;;;34.96;35.60;99793.66;5073134;28;20077;-61
2023/07/19 09:45:00;;;;;;;3.78;1.17;;;;;;;34.99;35.54;99786.88;5072998;28;20063;-61
2023/07/19 09:47:26;;;;;;;6.75;1.35;;;;;;;34.80;34.04;99798.69;5069608;28;20504;-61
2023/07/19 09:49:53;;;;;;;4.45;1.63;;;;;;;34.55;35.28;99798.44;5075199;28;20078;-61
2023/07/19 09:52:18;;;;;;;2.28;1.25;;;;;;;34.61;34.19;99799.53;5067970;28;20082;-61
2023/07/19 09:54:44;;;;;;;2.47;1.40;;;;;;;34.83;36.44;99788.09;5077358;28;20048;-61
2023/07/19 09:57:15;;;;;;;3.75;1.60;;;;;;;35.10;35.71;99789.84;5089989;28;20111;-62
2023/07/19 09:59:44;;;;;;;4.35;1.27;;;;;;;35.07;34.73;99783.88;5089852;28;20443;-61
2023/07/19 10:02:11;;;;;;;4.45;1.58;;;;;;;34.87;35.95;99778.31;5088291;28;20031;-62
2023/07/19 10:04:38;;;;;;;3.30;1.10;;;;;;;34.92;35.14;99780.47;5077341;28;20053;-62
2023/07/19 10:07:19;;;;;;;3.63;1.70;;;;;;;35.20;35.81;99779.22;5070096;28;20109;-62
2023/07/19 10:09:46;;;;;;;3.67;1.40;;;;;;;35.77;36.24;99793.19;5080189;28;20059;-62
2023/07/19 10:12:17;;;;;;;4.68;1.60;;;;;;;35.76;33.34;99780.44;5079457;28;20492;-61
2023/07/19 10:15:03;;;;;;;4.32;1.73;;;;;;;36.10;33.89;99781.19;5086649;28;20059;-62
2023/07/19 10:17:37;;;;;;;3.88;1.70;;;;;;;36.32;33.94;99779.81;5070502;28;20090;-61
2023/07/19 10:20:12;;;;;;;4.57;1.40;;;;;;;35.74;34.84;99770.63;5069565;28;20021;-61
2023/07/19 10:22:57;;;;;;;5.10;1.63;;;;;;;35.44;35.66;99752.81;5089181;28;20032;-61
2023/07/19 10:25:34;;;;;;;6.40;1.90;;;;;;;35.02;37.93;99758.78;5089439;28;20396;-61
2023/07/19 10:28:08;;;;;;;4.55;1.77;;;;;;;34.54;38.45;99755.31;5090086;28;20032;-61
2023/07/19 10:30:53;;;;;;;4.63;2.10;;;;;;;33.79;39.96;99760.06;5082106;28;20404;-61
2023/07/19 10:33:24;;;;;;;4.43;1.80;;;;;;;32.77;40.96;99756.06;5069330;28;20123;-61
2023/07/19 10:35:58;;;;;;;5.18;2.08;;;;;;;32.04;44.04;99766.47;5070033;28;20475;-61
2023/07/19 10:38:25;;;;;;;5.93;2.10;;;;;;;31.80;45.34;99759.34;5068854;28;20056;-61
2023/07/19 10:41:00;;;;;;;5.45;2.13;;;;;;;31.76;45.24;99757.19;5080524;28;20035;-61
2023/07/19 10:43:27;;;;;;;4.93;2.05;;;;;;;31.61;46.09;99759.09;5084736;28;20028;-61
2023/07/19 10:45:53;;;;;;;4.97;1.98;;;;;;;31.34;48.12;99757.84;5073148;28;20031;-61
2023/07/19 10:48:23;;;;;;;4.00;1.92;;;;;;;31.27;47.77;99756.03;5087552;28;20677;-61
2023/07/19 10:50:49;;;;;;;3.25;1.52;;;;;;;31.21;47.40;99756.75;5087004;28;20088;-61
2023/07/19 10:53:14;;;;;;;7.22;1.77;;;;;;;31.12;49.72;99763.38;5088875;28;20398;-61
2023/07/19 10:55:40;;;;;;;5.05;1.50;;;;;;;31.09;49.47;99763.75;5087684;28;20024;-61
2023/07/19 10:58:06;;;;;;;4.22;1.98;;;;;;;31.09;49.23;99758.25;5088449;28;20531;-61
2023/07/19 11:00:34;;;;;;;4.20;1.85;;;;;;;31.03;49.42;99759.00;5082439;28;20028;-61
2023/07/19 11:03:00;;;;;;;3.92;1.70;;;;;;;30.97;51.23;99757.00;5069559;28;20090;-61
2023/07/19 11:05:25;;;;;;;4.15;1.85;;;;;;;30.80;48.30;99746.16;5067591;28;20052;-61
2023/07/19 11:07:51;;;;;;;6.00;2.42;;;;;;;31.05;48.36;99744.03;5069412;28;20021;-61
2023/07/19 11:10:17;;;;;;;4.97;2.60;;;;;;;31.29;46.72;99748.41;5067070;28;20024;-61
2023/07/19 11:12:43;;;;;;;9.10;2.40;;;;;;;31.54;45.93;99752.63;5066786;28;20100;-61
2023/07/19 11:15:09;;;;;;;4.03;2.03;;;;;;;31.86;45.42;99747.59;5049120;28;20115;-61
2023/07/19 11:17:37;;;;;;;4.70;2.03;;;;;;;31.87;46.44;99741.06;5065702;28;20094;-61
2023/07/19 11:20:03;;;;;;;3.60;1.80;;;;;;;32.12;45.80;99747.09;5064211;28;20051;-61
2023/07/19 11:22:29;;;;;;;3.95;1.90;;;;;;;32.40;43.41;99748.09;5068174;28;20032;-61